createdAt,value
2022-08-26T00:01:04.709Z,21.11
2022-08-26T00:04:23.825Z,21.07
2022-08-26T00:07:15.203Z,21.03
2022-08-26T00:11:02.081Z,20.99
2022-08-26T00:14:17.230Z,20.97
2022-08-26T00:17:04.335Z,20.94
2022-08-26T00:19:56.808Z,20.92
2022-08-26T00:22:48.520Z,20.90
2022-08-26T00:25:21.703Z,20.86
2022-08-26T00:28:00.748Z,20.83
2022-08-26T00:30:58.123Z,20.80
2022-08-26T00:33:32.571Z,20.78
2022-08-26T00:37:01.635Z,20.74
2022-08-26T00:40:12.902Z,20.73
2022-08-26T00:42:48.164Z,20.70
2022-08-26T00:45:19.636Z,20.67
2022-08-26T00:48:03.750Z,20.65
2022-08-26T00:50:39.162Z,20.62
2022-08-26T00:53:26.037Z,20.63
2022-08-26T00:56:30.836Z,20.59
2022-08-26T00:59:05.366Z,20.58
2022-08-26T01:01:41.160Z,20.57
2022-08-26T01:04:12.513Z,20.56
2022-08-26T01:06:44.421Z,20.53
2022-08-26T01:09:18.300Z,20.51
2022-08-26T01:11:55.962Z,20.46
2022-08-26T01:14:30.537Z,20.44
2022-08-26T01:17:05.591Z,20.43
2022-08-26T01:19:49.531Z,20.42
2022-08-26T01:22:52.371Z,20.47
2022-08-26T01:25:23.835Z,20.49
2022-08-26T01:28:00.358Z,20.49
2022-08-26T01:30:32.145Z,20.46
2022-08-26T01:33:13.448Z,20.41
2022-08-26T01:35:45.463Z,20.39
2022-08-26T01:38:19.292Z,20.38
2022-08-26T01:40:52.543Z,20.33
2022-08-26T01:43:29.361Z,20.35
2022-08-26T01:46:01.427Z,20.36
2022-08-26T01:48:40.023Z,20.32
2022-08-26T01:51:11.815Z,20.29
2022-08-26T01:53:46.110Z,20.25
2022-08-26T01:56:21.209Z,20.21
2022-08-26T01:58:58.391Z,20.15
2022-08-26T02:01:32.435Z,20.12
2022-08-26T02:04:56.770Z,20.11
2022-08-26T02:08:12.584Z,20.10
2022-08-26T02:11:20.646Z,20.04
2022-08-26T02:14:33.823Z,19.92
2022-08-26T02:17:11.636Z,19.82
2022-08-26T02:20:18.146Z,19.72
2022-08-26T02:23:29.827Z,19.61
2022-08-26T02:26:06.256Z,19.52
2022-08-26T02:28:55.638Z,19.46
2022-08-26T02:31:47.021Z,19.43
2022-08-26T02:34:22.476Z,19.45
2022-08-26T02:36:53.023Z,19.46
2022-08-26T02:39:30.921Z,19.46
2022-08-26T02:42:22.209Z,19.45
2022-08-26T02:44:56.285Z,19.43
2022-08-26T02:47:35.094Z,19.41
2022-08-26T02:50:09.839Z,19.44
2022-08-26T02:52:54.022Z,19.44
2022-08-26T02:55:53.357Z,19.41
2022-08-26T02:58:43.980Z,19.42
2022-08-26T03:01:35.876Z,19.35
2022-08-26T03:04:33.468Z,19.30
2022-08-26T03:07:28.805Z,19.27
2022-08-26T03:10:46.699Z,19.19
2022-08-26T03:13:32.385Z,19.12
2022-08-26T03:16:32.344Z,19.08
2022-08-26T03:19:32.639Z,19.03
2022-08-26T03:22:31.170Z,18.98
2022-08-26T03:25:33.303Z,18.93
2022-08-26T03:28:28.691Z,18.91
2022-08-26T03:31:30.544Z,18.89
2022-08-26T03:34:24.204Z,18.88
2022-08-26T03:36:58.374Z,18.88
2022-08-26T03:39:31.633Z,18.86
2022-08-26T03:42:05.838Z,18.86
2022-08-26T03:44:42.735Z,18.84
2022-08-26T03:47:17.656Z,18.83
2022-08-26T03:49:49.116Z,18.84
2022-08-26T03:52:23.098Z,18.84
2022-08-26T03:54:56.260Z,18.85
2022-08-26T03:57:31.761Z,18.86
2022-08-26T04:00:07.111Z,18.85
2022-08-26T04:02:40.988Z,18.88
2022-08-26T04:05:12.677Z,18.87
2022-08-26T04:07:48.544Z,18.80
2022-08-26T04:10:28.568Z,18.75
2022-08-26T04:13:01.301Z,18.71
2022-08-26T04:15:33.453Z,18.72
2022-08-26T04:18:04.925Z,18.74
2022-08-26T04:20:35.185Z,18.78
2022-08-26T04:23:06.331Z,18.82
2022-08-26T04:25:40.528Z,18.89
2022-08-26T04:28:14.490Z,18.96
2022-08-26T04:31:05.719Z,19.03
2022-08-26T04:33:57.820Z,19.07
2022-08-26T04:36:37.449Z,19.12
2022-08-26T04:40:25.935Z,19.13
2022-08-26T04:43:21.726Z,19.19
2022-08-26T04:46:07.396Z,19.24
2022-08-26T04:48:38.341Z,19.28
2022-08-26T04:51:11.843Z,19.35
2022-08-26T04:54:11.876Z,19.43
2022-08-26T04:57:24.868Z,19.53
2022-08-26T05:00:18.364Z,19.65
2022-08-26T05:02:50.036Z,19.75
2022-08-26T05:05:24.896Z,19.86
2022-08-26T05:08:17.200Z,19.96
2022-08-26T05:11:05.729Z,20.13
2022-08-26T05:14:17.316Z,20.26
2022-08-26T05:16:54.326Z,20.48
2022-08-26T05:19:27.953Z,20.66
2022-08-26T05:22:09.517Z,20.84
2022-08-26T05:24:43.874Z,20.95
2022-08-26T05:27:22.341Z,21.07
2022-08-26T05:29:58.658Z,21.15
2022-08-26T05:32:47.833Z,21.28
2022-08-26T05:35:24.045Z,21.40
2022-08-26T05:38:54.448Z,21.53
2022-08-26T05:41:34.614Z,21.64
2022-08-26T05:44:14.419Z,21.66
2022-08-26T05:47:45.362Z,21.69
2022-08-26T05:51:48.104Z,21.71
2022-08-26T05:55:36.354Z,21.70
2022-08-26T05:58:10.417Z,21.73
2022-08-26T06:00:44.498Z,21.78
2022-08-26T06:03:17.541Z,21.89
2022-08-26T06:06:08.368Z,22.00
2022-08-26T06:08:44.377Z,22.13
2022-08-26T06:11:58.992Z,22.22
2022-08-26T06:14:32.919Z,22.32
2022-08-26T06:17:12.082Z,22.40
2022-08-26T06:19:51.374Z,22.52
2022-08-26T06:22:56.255Z,22.61
2022-08-26T06:25:59.185Z,22.76
2022-08-26T06:29:24.305Z,22.97
2022-08-26T06:31:59.043Z,23.35
2022-08-26T06:35:25.876Z,23.64
2022-08-26T06:39:01.722Z,23.96
2022-08-26T06:42:35.110Z,24.39
2022-08-26T06:49:13.479Z,24.84
2022-08-26T06:52:11.171Z,25.07
2022-08-26T06:55:01.229Z,25.26
2022-08-26T11:20:30.328Z,38.24
2022-08-26T19:00:22.373Z,22.65
2022-08-26T19:03:28.673Z,22.69
2022-08-26T19:07:31.603Z,22.70
2022-08-26T19:17:42.246Z,22.66
2022-08-26T22:21:21.808Z,21.38
2022-08-26T22:23:58.087Z,21.40
2022-08-26T22:26:32.903Z,21.40
2022-08-26T22:29:03.777Z,21.41
